Tiempo atmosférico en la estación meteorológica de Ávila, Ávila (1130 m.)



Fecha
DESCASC
Temp. máxima en grados centígrados (hora)
DESCASC
Temp. mínima en grados centígrados (hora)
DESCASC
Temp. media en grados centígrados
DESCASC
Racha de viento máxima en m/sg (hora)
DESCASC
Velocidad máxima media en intervalos de 10 minutos(hora)
DESCASC
Precipitaciones diarias en mm
DESCASC
Precipitaciones de 00:00 a 06:00 en mm
DESCASC
Precipitaciones de 06:00 a 12:00 en mm
DESCASC
Precipitaciones de 12:00 a 18:00 en mm
DESCASC
Precipitaciones de 18:00 a 24:00 en mm
DESCASC
08-12-2019 10.8 (14:20) -0.1 (07:40) 5.4 8.89 (21:10) 5.83 (21:10) 0.4 0 0 0.4 0
07-12-2019 13.1 (14:20) 0 (05:20) 6.6 6.11 (15:10) 3.89 (15:10) 0 0 0 0 0
06-12-2019 12 (16:00) 0.1 (08:30) 6.1 5.56 (14:10) 2.78 (13:50) 0 0 0 0 0
05-12-2019 6.6 (15:10) 1.8 (00:00) 4.2 6.67 (02:00) 4.17 (02:00) 0 0 0 0 0
04-12-2019 6.5 (13:20) 2.5 (00:00) 4.5 6.11 (15:30) 4.17 (15:20) 0 0 0 0 0
03-12-2019 7.5 (15:20) -0.8 (-00:0) 3.3 4.44 (23:20) 2.5 (22:00) 0 0 0 0 0
02-12-2019 7.2 (15:40) 1.2 (00:00) 4.2 9.72 (15:40) 5.83 (15:40) 0.8 0.8 0 0 0
01-12-2019 5.9 (15:40) 1.7 (00:00) 3.8 8.89 (23:50) 5 (23:59) 8.6 0 2.2 1 5.4
30-11-2019 14.3 (12:50) 2.8 (00:00) 8.6 12.78 (17:20) 7.5 (18:50) 5.4 0 0 1.6 3.8
29-11-2019 12.8 (13:40) 8.9 (00:00) 10.8 10.83 (01:00) 5.28 (01:10) 3.8 0 2.8 1 0
28-11-2019 12.2 (15:20) 4.5 (00:00) 8.3 9.44 (23:00) 5 (23:00) 0 0 0 0 0
27-11-2019 11.3 (14:20) 5.2 (00:00) 8.3 11.11 (14:30) 6.11 (15:20) 0 0 0 0 0
26-11-2019 15.9 (14:10) 5.3 (00:00) 10.6 14.17 (15:40) 7.5 (15:50) 0 0 0 0 0
25-11-2019 13.5 (14:10) 6.6 (00:00) 10 11.11 (12:30) 6.39 (13:40) 0 0 0 0 0
24-11-2019 8.9 (16:00) 1.9 (00:00) 5.4 10.56 (03:00) 6.11 (02:20) 0 0 0 0 0
23-11-2019 7.7 (14:50) 2.4 (00:00) 5 17.78 (04:00) 9.17 (07:00) 0.6 0.6 0 0 0
22-11-2019 13.2 (16:00) 3.9 (00:00) 8.5 14.72 (09:50) 7.5 (09:50) 1.6 0 0.2 0.8 0.6
21-11-2019 9.5 (14:30) 1.1 (00:00) 5.3 7.22 (14:00) 4.44 (14:40) 0.2 0 0 0.2 0
20-11-2019 4.5 (13:20) 1.6 (00:00) 3.1 9.72 (11:10) 5 (08:20) 1.4 0 0 1 0.4
19-11-2019 10.2 (13:20) -1.1 (-00:0) 4.5 5 (16:00) 3.33 (16:00) 0 0 0 0 0
18-11-2019 5.1 (15:30) 0.8 (00:00) 2.9 10.28 (04:30) 6.39 (04:10) 0 0 0 0 0
17-11-2019 8.8 (13:50) 0.5 (00:00) 4.7 12.78 (19:00) 8.06 (19:00) 4 0 0 1.6 2.4
16-11-2019 6.2 (13:50) -0.4 (00:00) 2.9 8.89 (01:50) 5.28 (01:50) 0 0 0 0 0
15-11-2019 4.7 (15:40) -0.1 (00:00) 2.3 12.5 (14:10) 7.78 (15:50) 1.2 1 0.2 0 0
14-11-2019 6.9 (00:00) 0.3 (00:00) 3.6 20.56 (18:40) 11.94 (18:50) 6.2 0.4 4.8 0.8 0.2
13-11-2019 11.9 (16:00) 6.9 (00:00) 9.4 17.22 (06:50) 10.28 (06:50) 6.6 2.8 3.8 0 0
12-11-2019 9.7 (15:20) 1.2 (00:00) 5.4 10.56 (22:10) 5.83 (22:10) 3 0 0 0 3
11-11-2019 10.2 (13:50) 2.2 (02:10) 6.2 11.67 (16:00) 7.5 (15:10) 0.4 0 0.4 0 0

Gráficas

Temp. máximas Temp. mínimas Temp. medias Precipitaciones Rachas de viento máximas Velocidades máximas media en intervalos de 10 minutos

Datos horarios

Fecha y hora oficial Temperatura (ºC) Velocidad del viento (km/h) Dirección del viento Racha (km/h) Dirección de racha Precipitación (mm) Presión (hPa) Tendencia (hPa) Humedad (%)
2019-12-10 23:00:00 3.4 4 Sur 8 Sur 0 895.8 -0.6 69
2019-12-10 22:00:00 3.4 0 Calma 3 Sudeste 0 896.3 -0.2 71
2019-12-10 21:00:00 5 4 Sur 10 Sudeste 0 896.5 0 63
2019-12-10 20:00:00 6.4 3 Sudeste 9 Sudeste 0 896.4 -0.5 55
2019-12-10 19:00:00 6.5 3 Este 5 Oeste 0 896.5 -0.4 58
2019-12-10 18:00:00 8.7 2 Este 9 Nordeste 0 896.5 -1 46
2019-12-10 17:00:00 9.9 7 Norte 12 Norte 0 896.9 -1 41
2019-12-10 16:00:00 11.4 7 Norte 13 Norte 0 896.9 -1.8 33
2019-12-10 15:00:00 12.6 8 Norte 15 Norte 0 897.5 -2 29
2019-12-10 14:00:00 11.1 6 Nordeste 10 Norte 0 897.9 -2 30
2019-12-10 13:00:00 8.8 3 Sudoeste 5 Sudoeste 0 898.7 -1 48
2019-12-10 12:00:00 5.1 3 Sudoeste 8 Sudoeste 0 899.5 0 50
2019-12-10 11:00:00 2.6 5 Sur 9 Sur 0 899.9 0.4 63
2019-12-10 10:00:00 -0.3 5 Sur 9 Sur 0 899.7 0.1 80
2019-12-10 09:00:00 -1 2 Sur 6 Sudeste 0 899.5 -0.6 81
2019-12-10 08:00:00 -1.1 3 Este 6 Este 0 899.5 -0.7 83
2019-12-10 07:00:00 -1.3 4 Este 7 Este 0 899.6 -0.6 86
2019-12-10 06:00:00 -1.3 3 Sur 9 Sur 0 900.1 -0.8 86
2019-12-10 05:00:00 -0.8 3 Sudeste 6 Este 0 900.2 -0.6 89
2019-12-10 04:00:00 -0.4 5 Sur 8 Sur 0 900.2 -1 89
2019-12-10 03:00:00 0.1 4 Sur 6 Sur 0 900.9 -0.3 89
2019-12-10 02:00:00 0.7 3 Sudoeste 9 Sudoeste 0 900.8 -0.4 89
2019-12-10 01:00:00 1.1 4 Sudeste 6 Sur 0 901.2 0 95
2019-12-10 00:00:00 1.8 2 Noroeste 5 Oeste 0 901.2 -0.1 94
2019-12-09 23:00:00 3.2 0 Calma 5 Norte 0 901.2 0.2 91
2019-12-09 22:00:00 4.8 5 Noroeste 12 Norte 0 901.2 0.9 89
2019-12-09 21:00:00 5.6 9 Norte 17 Norte 0 901.3 1.5 87
2019-12-09 20:00:00 5.7 8 Noroeste 13 Noroeste 0 901 1.5 87
2019-12-09 19:00:00 6.5 9 Norte 23 Norte 0 900.3 1 88
2019-12-09 18:00:00 8.3 15 Norte 23 Norte 0 899.8 0.3 75
2019-12-09 17:00:00 10.4 11 Noroeste 24 Noroeste 0 899.5 -0.2 34
2019-12-09 16:00:00 12 17 Noroeste 30 Noroeste 0 899.3 -0.7 28
2019-12-09 15:00:00 12.1 20 Noroeste 32 Noroeste 0 899.5 -1 27
2019-12-09 14:00:00 12.3 21 Noroeste 30 Noroeste 0 899.7 -0.9 28
2019-12-09 13:00:00 11.5 16 Noroeste 27 Noroeste 0 900 -0.3 30
2019-12-09 12:00:00 7.8 5 Sudoeste 8 Sudoeste 0 900.5 0.7 58
2019-12-09 11:00:00 4.1 3 Sudeste 8 Sur 0 900.6 1.2 78
2019-12-09 10:00:00 0.6 5 Sur 10 Sur 0 900.3 1.5 89
2019-12-09 09:00:00 0 4 Sur 7 Sur 0 899.8 1.5 96
2019-12-09 08:00:00 0.5 0 Calma 10 Sur 0 899.4 0.7 95
2019-12-09 07:00:00 1.7 3 Sur 10 Sudoeste 0 898.8 0.2 97
2019-12-09 06:00:00 2.5 4 Sur 6 Sur 0 898.3 -0.8 98
2019-12-09 05:00:00 3.5 0 Calma 6 Sudoeste 0 898.7 -0.3 96
2019-12-09 04:00:00 5 3 Noroeste 10 Noroeste 0 898.6 0 92
2019-12-09 03:00:00 6.8 9 Noroeste 17 Noroeste 0 899.1 1.2 97
2019-12-09 02:00:00 7.1 8 Noroeste 15 Norte 0 899 1.2 99
2019-12-09 01:00:00 7.2 5 Noroeste 10 Noroeste 0 898.6 1.1 98
2019-12-09 00:00:00 7.2 8 Noroeste 23 Noroeste 0 897.9 0.6 96
2019-12-08 23:00:00 8.3 16 Noroeste 24 Noroeste 0 897.8 1.4 95
2019-12-08 22:00:00 8.7 14 Noroeste 32 Noroeste 0 897.5 1.5 98
2019-12-08 21:00:00 9 17 Noroeste 32 Noroeste 0 897.3 1.7 98
2019-12-08 20:00:00 9.3 14 Noroeste 24 Noroeste 0 896.4 0.8 96
2019-12-08 19:00:00 9.1 11 Noroeste 19 Noroeste 0 896 0.5 96
2019-12-08 18:00:00 9.2 5 Oeste 15 Oeste 0 895.6 0 93
2019-12-08 17:00:00 9.6 9 Oeste 15 Noroeste 0.2 895.6 0.1 91
2019-12-08 16:00:00 10 5 Oeste 20 Oeste 0.2 895.5 -0.2 90
2019-12-08 15:00:00 10.2 17 Noroeste 32 Noroeste 0 895.6 -0.6 87
2019-12-08 14:00:00 10.4 13 Noroeste 23 Noroeste 0 895.5 -0.8 81
2019-12-08 13:00:00 8.9 4 Sudoeste 7 Sudoeste 0 895.7 -0.5 74
2019-12-08 12:00:00 7.2 3 Sudeste 10 Sur 0 896.2 0.2 75
2019-12-08 11:00:00 5.5 3 Sudeste 7 Sudeste 0 896.3 0.3 79
2019-12-08 10:00:00 4.3 3 Sur 8 Sudoeste 0 896.2 0.6 81
2019-12-08 09:00:00 2 4 Sudeste 8 Sudeste 0 896 0.5 94
2019-12-08 08:00:00 0.3 4 Sur 7 Sur 0 896 0.4 97
2019-12-08 07:00:00 0.6 2 Sur 11 Sur 0 895.6 -0.2 94
2019-12-08 06:00:00 0.2 3 Este 5 Sudeste 0 895.5 0 94
2019-12-08 05:00:00 0.7 3 Sudeste 15 Sur 0 895.6 -0.2 95
2019-12-08 04:00:00 0.9 4 Este 6 Este 0 895.8 -0.6 97
2019-12-08 03:00:00 1.5 3 Sudeste 6 Sur 0 895.5 -1 97
2019-12-08 02:00:00 1.7 4 Este 8 Sudeste 0 895.8 -0.4 95
2019-12-08 01:00:00 1.8 2 Sudeste 6 Sudoeste 0 896.4 0.3 96
2019-12-08 00:00:00 2.3 2 Sudoeste 7 Sur 0 896.5 0.7 95
2019-12-07 23:00:00 2.6 0 Calma 8 Sudeste 0 896.2 0.7 94
2019-12-07 22:00:00 3.4 2 Sudeste 8 Sudeste 0 896.1 1 91
2019-12-07 21:00:00 4.2 3 Este 4 Sudeste 0 895.8 1.1 90
2019-12-07 20:00:00 5.7 0 Calma 9 Nordeste 0 895.5 1 83
2019-12-07 19:00:00 7.2 5 Norte 10 Nordeste 0 895.1 0.9 77
2019-12-07 18:00:00 8.5 5 Nordeste 16 Norte 0 894.7 0.8 72
2019-12-07 17:00:00 10 10 Noroeste 18 Norte 0 894.5 0.3 68
2019-12-07 16:00:00 10.7 14 Norte 22 Norte 0 894.2 -0.5 63
2019-12-07 15:00:00 11.9 13 Norte 19 Noroeste 0 893.9 -1.3 64
2019-12-07 14:00:00 12.4 3 Oeste 6 Sudoeste 0 894.2 -1 55
2019-12-07 13:00:00 10.3 4 Sur 8 Sudoeste 0 894.7 -0.3 63
2019-12-07 12:00:00 7.9 5 Sur 8 Sudoeste 0 895.2 0.5 67
2019-12-07 11:00:00 5.5 3 Oeste 6 Sur 0 895.2 0.8 80
2019-12-07 10:00:00 1.6 5 Sur 7 Sur 0 895 1.2 99
2019-12-07 09:00:00 0.1 0 Calma 8 Sur 0 894.7 0.9 97
2019-12-07 08:00:00 0.2 3 Sudeste 12 Sur 0 894.4 0.2 97
2019-12-07 07:00:00 0.2 5 Sur 10 Sur 0 893.8 -0.6 97
2019-12-07 06:00:00 0.8 3 Sudeste 12 Sudeste 0 893.8 -0.5 98
2019-12-07 05:00:00 0.2 2 Sur 6 Sur 0 894.2 0 96
2019-12-07 04:00:00 0.6 3 Sudeste 8 Sur 0 894.4 0.1 96
2019-12-07 03:00:00 1 3 Sur 10 Sudeste 0 894.3 -0.1 93
2019-12-07 02:00:00 1.9 6 Sudeste 9 Sur 0 894.2 -0.3 97
2019-12-07 01:00:00 2 6 Sur 8 Sur 0 894.3 0 96
2019-12-07 00:00:00 2.6 2 Sudeste 10 Sur 0 894.4 0.7 93
2019-12-06 23:00:00 3.5 5 Sur 11 Sur 0 894.5 1.1 90
2019-12-06 22:00:00 4.1 0 Calma 13 Sur 0 894.3 1.2 87
2019-12-06 21:00:00 5 8 Sudeste 13 Sudeste 0 893.7 0.9 86
2019-12-06 20:00:00 5.1 2 Este 8 Sudeste 0 893.4 0.8 84
2019-12-06 19:00:00 6.7 4 Este 8 Norte 0 893.1 0.7 80
2019-12-06 18:00:00 8.9 3 Sudeste 9 Noroeste 0 892.8 0.1 71
2019-12-06 17:00:00 10.6 4 Sur 9 Sudeste 0 892.6 -0.4 62
2019-12-06 16:00:00 11.9 4 Sur 12 Este 0 892.4 -1.3 58
2019-12-06 15:00:00 11.5 5 Sur 20 Sur 0 892.7 -1.3 60
2019-12-06 14:00:00 10.6 10 Sudeste 18 Sudeste 0 893 -1.2 64
2019-12-06 13:00:00 10 9 Sur 17 Sur 0 893.7 -0.2 66
2019-12-06 12:00:00 8.6 6 Sur 13 Sur 0 894 0.6 75
2019-12-06 11:00:00 5.8 3 Sudoeste 4 Sur 0 894.2 1.1 84
2019-12-06 10:00:00 1.8 3 Sudoeste 7 Sudoeste 0 893.9 1.3 100
2019-12-06 09:00:00 0.2 2 Sur 6 Sur 0 893.4 0.9 97
2019-12-06 08:00:00 0.5 0 Calma 10 Sur 0 893.1 0.8 95
2019-12-06 07:00:00 1 4 Sur 8 Sur 0 892.6 0.3 97
2019-12-06 06:00:00 1.6 5 Sudeste 7 Sudeste 0 892.5 0.1 94
2019-12-06 05:00:00 2.7 7 Sudeste 9 Sudeste 0 892.3 0.1 95
2019-12-06 04:00:00 2.2 5 Sudeste 8 Sudeste 0 892.3 0 93
2019-12-06 03:00:00 2 4 Este 6 Sur 0 892.4 0 94
2019-12-06 02:00:00 3.2 6 Sudeste 14 Sur 0 892.2 -0.3 92
2019-12-06 01:00:00 2.6 4 Sudeste 10 Sur 0 892.3 -0.1 95
2019-12-06 00:00:00 2.4 6 Sudeste 9 Sudeste 0 892.4 0.4 96
2019-12-05 23:00:00 3.1 5 Sudeste 9 Sur 0 892.5 0.9 93
2019-12-05 22:00:00 3.5 3 Oeste 10 Sur 0 892.4 1.6 96
2019-12-05 21:00:00 3.3 4 Sudeste 10 Sur 0 892 1.4 91
2019-12-05 20:00:00 3.7 0 Calma 8 Oeste 0 891.6 1.4 91
2019-12-05 19:00:00 5 4 Noroeste 8 Noroeste 0 890.8 0.9 88
2019-12-05 18:00:00 5.9 2 Noroeste 6 Norte 0 890.6 0.8 85
2019-12-05 17:00:00 6.1 4 Norte 12 Norte 0 890.2 0.5 84
2019-12-05 16:00:00 6 7 Norte 16 Norte 0 889.9 -0.2 81
2019-12-05 15:00:00 6.2 8 Norte 16 Norte 0 889.8 -0.7 80
2019-12-05 14:00:00 5.6 9 Norte 17 Nordeste 0 889.7 -0.3 84
2019-12-05 13:00:00 5.7 2 Este 14 Nordeste 0 890.1 1 83
2019-12-05 12:00:00 4.3 5 Nordeste 13 Norte 0 890.5 2 87
2019-12-05 11:00:00 3.7 2 Norte 8 Noroeste 0 890 2 89
2019-12-05 10:00:00 3.2 6 Oeste 9 Noroeste 0 889.1 1.7 92
2019-12-05 09:00:00 2.9 6 Noroeste 10 Noroeste 0 888.5 1.5 93
2019-12-05 08:00:00 2.8 4 Noroeste 11 Norte 0 888 1.4 93
2019-12-05 07:00:00 2.7 5 Noroeste 10 Noroeste 0 887.4 0.9 94
2019-12-05 06:00:00 2.5 7 Noroeste 10 Noroeste 0 887 0.9 93
2019-12-05 05:00:00 2.3 5 Oeste 10 Noroeste 0 886.6 0.1 93
2019-12-05 04:00:00 2.1 4 Noroeste 14 Norte 0 886.5 0.9 93
2019-12-05 03:00:00 1.9 8 Noroeste 17 Norte 0 886.1 1.2 93
2019-12-05 02:00:00 2.2 15 Norte 24 Norte 0 886.5 2.2 94
2019-12-05 01:00:00 4 11 Norte 19 Norte 0 885.6 1.3 93
2019-12-05 00:00:00 4.5 6 Norte 12 Norte 0 884.9 0.8 92
2019-12-04 23:00:00 4.5 3 Oeste 6 Noroeste 0 884.3 0.5 91
2019-12-04 22:00:00 4.3 4 Oeste 8 Noroeste 0 884.3 0.9 92
2019-12-04 21:00:00 4.1 5 Noroeste 8 Oeste 0 884.1 1.1 92
2019-12-04 20:00:00 3.9 5 Oeste 9 Oeste 0 883.8 1.2 93
2019-12-04 19:00:00 3.6 7 Oeste 9 Oeste 0 883.4 1.3 93
2019-12-04 18:00:00 3.3 2 Noroeste 10 Norte 0 883 1.1 92
2019-12-04 17:00:00 3.2 9 Norte 14 Norte 0 882.6 0.6 90
2019-12-04 16:00:00 3.4 10 Norte 22 Norte 0 882.1 -0.1 90
2019-12-04 15:00:00 4.1 13 Norte 21 Norte 0 881.9 -1 86
2019-12-04 14:00:00 6.2 9 Norte 17 Norte 0 882 -1 74
2019-12-04 13:00:00 5.6 4 Noroeste 11 Oeste 0 882.2 -0.5 74
2019-12-04 12:00:00 4.7 4 Oeste 7 Oeste 0 882.9 0.6 86
2019-12-04 11:00:00 4.5 3 Sur 6 Nordeste 0 883 0.6 84
2019-12-04 10:00:00 3.5 3 Noroeste 9 Norte 0 882.7 0.4 89
2019-12-04 09:00:00 3 2 Sudeste 6 Sudoeste 0 882.3 0 88
2019-12-04 08:00:00 2.7 4 Sudoeste 10 Sur 0 882.4 -0.4 88
2019-12-04 07:00:00 3 4 Sur 9 Sudoeste 0 882.3 -1 87
2019-12-04 06:00:00 3 5 Sudoeste 9 Oeste 0 882.3 -1.4 86
2019-12-04 05:00:00 2.9 2 Nordeste 9 Sudoeste 0 882.8 -1.5 90
2019-12-04 04:00:00 3.3 4 Este 14 Nordeste 0 883.3 -1.6 87
2019-12-04 03:00:00 3.8 3 Noroeste 5 Oeste 0 883.7 -1.4 87
2019-12-04 02:00:00 3.8 3 Nordeste 10 Sudeste 0 884.3 -0.8 87
2019-12-04 01:00:00 3.8 4 Sudeste 10 Sudeste 0 884.9 -0.2 85
2019-12-04 00:00:00 4 5 Sudeste 16 Este 0 885.1 0.1 85
2019-12-03 23:00:00 4.1 6 Sudeste 14 Sudeste 0 885.1 0.3 85
2019-12-03 22:00:00 4.4 9 Sudeste 15 Sudeste 0 885.1 0.3 85
2019-12-03 21:00:00 4.3 6 Sudeste 9 Sudeste 0 885 0.4 86
2019-12-03 20:00:00 3.4 2 Noroeste 6 Noroeste 0 884.8 0.2 88
2019-12-03 19:00:00 3.8 5 Norte 10 Norte 0 884.8 0.2 85
2019-12-03 18:00:00 4.9 5 Noroeste 10 Noroeste 0 884.6 -0.1 81
2019-12-03 17:00:00 6 7 Oeste 11 Este 0 884.6 -0.9 75
2019-12-03 16:00:00 6.2 8 Norte 13 Norte 0 884.6 -1.6 75
2019-12-03 15:00:00 7.1 3 Sudoeste 10 Sudoeste 0 884.7 -2.5 71
2019-12-03 14:00:00 5.6 3 Noroeste 10 Oeste 0 885.5 -2 74
2019-12-03 13:00:00 3.9 2 Norte 6 Nordeste 0 886.2 -1.1 79
2019-12-03 12:00:00 1 4 Este 12 Nordeste 0 887.2 -0.2 89
2019-12-03 11:00:00 0 2 Sudeste 9 Este 0 887.5 0 94
2019-12-03 10:00:00 -0.6 3 Este 8 Sur 0 887.3 -0.5 97
2019-12-03 09:00:00 -0.6 2 Nordeste 9 Sur 0 887.4 -0.5 96
2019-12-03 08:00:00 -0.8 5 Sur 9 Sudoeste 0 887.5 -0.4 96
2019-12-03 07:00:00 -0.8 6 Nordeste 13 Noroeste 0 887.8 -0.7 96
2019-12-03 06:00:00 -0.7 3 Nordeste 12 Norte 0 887.9 -0.8 95
2019-12-03 05:00:00 -0.2 5 Noroeste 7 Noroeste 0 887.9 -1 95
2019-12-03 04:00:00 -0.4 6 Noroeste 10 Noroeste 0 888.5 -1 96
2019-12-03 03:00:00 -0.2 4 Norte 13 Noroeste 0 888.7 -1 95
2019-12-03 02:00:00 0.3 4 Norte 13 Norte 0 888.9 -0.9 94
2019-12-03 01:00:00 0.6 5 Nordeste 15 Norte 0 889.5 -0.4 93
2019-12-03 00:00:00 1.2 6 Nordeste 15 Norte 0 889.7 0 91
2019-12-02 23:00:00 1.7 8 Norte 16 Norte 0 889.8 0.7 91
2019-12-02 22:00:00 2 9 Nordeste 26 Nordeste 0 889.9 1.3 91
2019-12-02 21:00:00 3 12 Nordeste 27 Nordeste 0 889.7 1.6 89
2019-12-02 20:00:00 4 12 Nordeste 24 Nordeste 0 889.1 1.5 90
2019-12-02 19:00:00 4.5 9 Nordeste 21 Norte 0 888.6 1.4 90
2019-12-02 18:00:00 5.4 10 Norte 30 Nordeste 0 888.1 1 81
2019-12-02 17:00:00 6.6 18 Nordeste 34 Nordeste 0 887.6 0.1 69
2019-12-02 16:00:00 7.1 18 Nordeste 35 Nordeste 0 887.2 -0.6 69
2019-12-02 15:00:00 6.8 14 Nordeste 28 Nordeste 0 887.1 -0.9 74
2019-12-02 14:00:00 6.2 17 Norte 26 Norte 0 887.5 -0.5 77
2019-12-02 13:00:00 5.3 8 Nordeste 24 Nordeste 0 887.8 0.6 83
2019-12-02 12:00:00 3.9 15 Norte 27 Norte 0 888 1.4 85
2019-12-02 11:00:00 2.4 10 Nordeste 23 Norte 0 888 1.9 93
2019-12-02 10:00:00 1.8 12 Nordeste 23 Nordeste 0 887.2 1.6 94
2019-12-02 09:00:00 1.8 10 Norte 22 Norte 0 886.6 1.2 96
2019-12-02 08:00:00 1.8 14 Nordeste 29 Nordeste 0 886.1 0.9 96
2019-12-02 07:00:00 2 14 Nordeste 27 Nordeste 0 885.6 0.7 95
2019-12-02 06:00:00 2.3 14 Nordeste 25 Nordeste 0 885.4 0.8 95
2019-12-02 05:00:00 2.7 12 Nordeste 21 Nordeste 0 885.2 1.2 95
2019-12-02 04:00:00 3.2 9 Nordeste 17 Nordeste 0 884.9 1 94
2019-12-02 03:00:00 3.7 11 Nordeste 21 Nordeste 0 884.6 0.9 96
2019-12-02 02:00:00 4.1 12 Nordeste 25 Nordeste 0.6 884 0.4 96
2019-12-02 01:00:00 4.2 15 Nordeste 30 Nordeste 0.2 883.9 0.5 96
2019-12-02 00:00:00 4.3 18 Nordeste 32 Nordeste 1 883.7 0.5 96
2019-12-01 23:00:00 4.1 13 Nordeste 26 Nordeste 0.8 883.6 0.5 96
2019-12-01 22:00:00 3.6 9 Nordeste 18 Norte 1.6 883.4 0.8 96
2019-12-01 21:00:00 3.5 7 Nordeste 13 Nordeste 1 883.2 1 95
2019-12-01 20:00:00 3.3 8 Nordeste 22 Este 1 883.1 1.2 93
2019-12-01 19:00:00 3.8 10 Nordeste 17 Nordeste 0 882.6 0.9 91
2019-12-01 18:00:00 4.5 12 Este 18 Este 0.2 882.2 0.5 88
2019-12-01 17:00:00 4.9 8 Este 14 Sudeste 0.4 881.9 -0.1 89
2019-12-01 16:00:00 5.7 7 Este 12 Este 0.2 881.7 -0.6 88
2019-12-01 15:00:00 5.6 5 Sudeste 12 Sudeste 0.2 881.7 -1.3 88
2019-12-01 14:00:00 5.3 5 Sudeste 15 Sur 0 882 -1.2 88
2019-12-01 13:00:00 4.9 9 Sur 14 Sur 0 882.3 -0.1 91
2019-12-01 12:00:00 4.6 6 Sudeste 17 Sur 1.2 883 1 96
2019-12-01 11:00:00 4 8 Sudoeste 18 Sur 1 883.2 1.1 95
2019-12-01 10:00:00 3.7 9 Sur 22 Sur 0 882.4 0 96
2019-12-01 09:00:00 3.3 13 Sudeste 30 Sudeste 0 882 -0.8 93
2019-12-01 08:00:00 3.3 8 Sudeste 24 Sudeste 0 882.1 -1.4 87
2019-12-01 07:00:00 3.4 10 Sudeste 18 Sudeste 0 882.4 -1.3 88
2019-12-01 06:00:00 3.2 8 Sudeste 19 Sudeste 0 882.8 -1.8 83
2019-12-01 05:00:00 2.2 8 Sudeste 16 Sudeste 0 883.5 -1.7 84
2019-12-01 04:00:00 1.8 9 Sudeste 16 Sudeste 0 883.7 -2.4 83
2019-12-01 03:00:00 2.1 5 Sur 11 Sur 0 884.6 -1.8 85
2019-12-01 02:00:00 2.4 8 Sur 13 Sudeste 0 885.2 -1.3 89
2019-12-01 01:00:00 2.3 5 Sur 8 Este 0 886.1 -1 92
2019-12-01 00:00:00 2.9 4 Sur 13 Oeste 0 886.4 -1.1 89
2019-11-30 23:00:00 4 7 Oeste 17 Sudoeste 0 886.5 -1.9 83
2019-11-30 22:00:00 4.3 10 Noroeste 17 Noroeste 0 887.1 -0.7 89
2019-11-30 21:00:00 5 8 Oeste 26 Noroeste 0.8 887.5 0.2 88
2019-11-30 20:00:00 5.5 15 Oeste 42 Noroeste 1.2 888.4 1.2 88
2019-11-30 19:00:00 5.8 26 Noroeste 44 Noroeste 1.8 887.8 1 92
2019-11-30 18:00:00 7.9 9 Norte 46 Oeste 1.6 887.3 0.2 96
2019-11-30 17:00:00 11.2 9 Sudoeste 30 Sur 0 887.2 -0.8 79
2019-11-30 16:00:00 12.2 14 Sur 34 Sur 0 886.8 -2.1 70
2019-11-30 15:00:00 11.8 17 Sur 32 Sur 0 887.1 -2.8 73
2019-11-30 14:00:00 12.2 14 Sur 32 Sur 0 888 -2.1 71
2019-11-30 13:00:00 14.2 17 Sur 31 Sudeste 0 888.9 -1.4 64
2019-11-30 12:00:00 13.3 18 Sur 33 Sur 0 889.9 -0.6 70
2019-11-30 11:00:00 12 18 Sur 28 Sur 0 890.1 -0.6 75
2019-11-30 10:00:00 9 10 Sur 16 Sur 0 890.3 -0.4 87
2019-11-30 09:00:00 7.2 6 Sudeste 17 Sudeste 0 890.5 -0.6 92
2019-11-30 08:00:00 7.2 9 Sudeste 13 Sudeste 0 890.7 -1 91
2019-11-30 07:00:00 7.2 8 Sudeste 14 Sudeste 0 890.7 -1.3 92
2019-11-30 06:00:00 7.5 9 Sudeste 14 Sur 0 891.1 -0.7 93
2019-11-30 05:00:00 7.1 3 Sudeste 15 Sudeste 0 891.7 -0.2 93
2019-11-30 04:00:00 7.6 5 Sudeste 11 Sudeste 0 892 -0.6 93
2019-11-30 03:00:00 8.1 8 Sudeste 13 Sudeste 0 891.8 -0.8 94
2019-11-30 02:00:00 7.7 3 Sudeste 9 Sudeste 0 891.9 -0.8 93
2019-11-30 01:00:00 8.1 6 Este 12 Sudeste 0 892.6 0.1 92
2019-11-30 00:00:00 8.9 5 Sudeste 9 Sur 0 892.6 0.1 90
2019-11-29 23:00:00 9.9 3 Sudeste 10 Sudeste 0 892.7 0.5 88
2019-11-29 22:00:00 9.8 6 Sur 11 Sudeste 0 892.5 0.1 87
2019-11-29 21:00:00 9.6 2 Este 12 Sudeste 0 892.5 0.3 87
2019-11-29 20:00:00 10.5 6 Sudeste 11 Este 0 892.2 0.2 86
2019-11-29 19:00:00 10.9 6 Este 11 Este 0 892.4 0.7 82
2019-11-29 18:00:00 11.6 5 Nordeste 14 Oeste 0 892.2 0.4 78
2019-11-29 17:00:00 12.4 7 Oeste 22 Oeste 0 892 -0.1 75
2019-11-29 16:00:00 12.7 7 Oeste 15 Oeste 0 891.7 -0.8 77
2019-11-29 15:00:00 12.3 4 Noroeste 16 Oeste 0.6 891.8 -1.1 79
2019-11-29 14:00:00 12.7 7 Oeste 19 Oeste 0 892.1 -0.4 78
2019-11-29 13:00:00 12.2 7 Oeste 22 Sudoeste 0.4 892.5 0.5 87
2019-11-29 12:00:00 11 4 Oeste 8 Sudoeste 0 892.9 1.9 94
2019-11-29 11:00:00 10.4 3 Sur 15 Sudoeste 1.6 892.5 1.9 96
2019-11-29 10:00:00 10.1 6 Sudoeste 15 Sur 1 892 2 95
2019-11-29 09:00:00 9.9 6 Sudeste 11 Sur 0.2 891 0.8 92
2019-11-29 08:00:00 10.1 0 Calma 17 Sudoeste 0 890.6 0.7 90
2019-11-29 07:00:00 9.7 6 Sudoeste 16 Sur 0 890 0.1 92
2019-11-29 06:00:00 9.9 6 Sudoeste 18 Oeste 0 890.2 0.9 90
2019-11-29 05:00:00 10 9 Oeste 21 Sudoeste 0 889.9 1 91
2019-11-29 04:00:00 10.2 9 Sudoeste 21 Oeste 0 889.9 1.1 87
2019-11-29 03:00:00 10.3 12 Oeste 32 Oeste 0 889.3 0.6 85
2019-11-29 02:00:00 10.4 14 Sudoeste 32 Sudoeste 0 888.9 0.1 84
2019-11-29 01:00:00 10.5 18 Sudoeste 39 Oeste 0 888.8 0.4 81
2019-11-29 00:00:00 10.2 13 Oeste 27 Oeste 0 888.7 0.6 81
2019-11-28 23:00:00 10.3 18 Oeste 34 Oeste 0 888.8 1.1 77
2019-11-28 22:00:00 9.9 9 Sudoeste 21 Oeste 0 888.4 0.6 76
2019-11-28 21:00:00 9.4 6 Sur 19 Este 0 888.1 0.5 75
2019-11-28 20:00:00 9 6 Sur 19 Sudoeste 0 887.7 0.6 75
2019-11-28 19:00:00 9.7 12 Oeste 30 Oeste 0 887.8 1 72
2019-11-28 18:00:00 9.6 3 Oeste 17 Sudeste 0 887.6 0.5 78
2019-11-28 17:00:00 11.1 8 Sur 26 Oeste 0 887.1 -0.5 71
2019-11-28 16:00:00 12.1 7 Sudoeste 23 Oeste 0 886.8 -1.3 59
2019-11-28 15:00:00 12 3 Sur 16 Sur 0 887.1 -2 62
2019-11-28 14:00:00 11.7 10 Sudoeste 22 Sudoeste 0 887.6 -1.3 67
2019-11-28 13:00:00 10.5 8 Sur 15 Sur 0 888.1 -0.1 71
2019-11-28 12:00:00 9.4 5 Sur 14 Sudeste 0 889.1 1.2 75
2019-11-28 11:00:00 8 5 Este 13 Sudeste 0 888.9 1.4 83
2019-11-28 10:00:00 7 8 Sudeste 14 Sudeste 0 888.2 1.4 87
2019-11-28 09:00:00 4.7 5 Sur 11 Sudeste 0 887.9 1.1 93
2019-11-28 08:00:00 5 6 Sur 11 Sur 0 887.5 0.7 91
2019-11-28 07:00:00 5.7 8 Sudoeste 17 Sudoeste 0 886.8 0.3 89
2019-11-28 06:00:00 5.5 6 Sur 13 Sur 0 886.8 0.4 88
2019-11-28 05:00:00 5.3 4 Sudoeste 13 Sudeste 0 886.8 0.4 88
2019-11-28 04:00:00 5.8 2 Norte 23 Oeste 0 886.5 -0.3 85
2019-11-28 03:00:00 7 15 Sudoeste 27 Sudoeste 0 886.4 -0.5 80
2019-11-28 02:00:00 6.9 5 Sudoeste 22 Oeste 0 886.4 -0.2 81
2019-11-28 01:00:00 7.4 6 Sudoeste 27 Sudoeste 0 886.8 0.7 81
2019-11-28 00:00:00 6.4 7 Sudoeste 15 Sudoeste 0 886.9 1.2 83
2019-11-27 23:00:00 6.7 3 Sudoeste 18 Sudoeste 0 886.6 0.8 79
2019-11-27 22:00:00 7.1 9 Sudoeste 26 Sudoeste 0 886.1 0.7 79
2019-11-27 21:00:00 7.5 9 Sudoeste 21 Oeste 0 885.7 0.9 78
2019-11-27 20:00:00 8.3 10 Oeste 26 Oeste 0 885.8 1.2 74
2019-11-27 19:00:00 8.6 13 Oeste 28 Oeste 0 885.4 1 70
2019-11-27 18:00:00 9 14 Oeste 35 Oeste 0 884.8 0.6 67
2019-11-27 17:00:00 9.7 16 Oeste 33 Sudoeste 0 884.6 0 63
2019-11-27 16:00:00 10.5 17 Oeste 38 Oeste 0 884.4 -0.5 61
2019-11-27 15:00:00 11.3 17 Oeste 40 Oeste 0 884.2 -1.3 57
2019-11-27 14:00:00 10.9 15 Oeste 34 Oeste 0 884.6 -1 60
2019-11-27 06:00:00 6.8 17 Oeste 27 Oeste 0 883.3 0.9 72
2019-11-27 05:00:00 6.7 8 Norte 30 Noroeste 0 883 1.3 82
2019-11-27 04:00:00 8 14 Oeste 36 Oeste 0 882.6 0.2 73
2019-11-27 03:00:00 8.4 10 Oeste 30 Oeste 0 882.4 0.4 79
2019-11-27 02:00:00 8.9 15 Oeste 33 Sudoeste 0 881.7 0.1 83
2019-11-27 01:00:00 9.2 11 Oeste 30 Oeste 0 882.4 1.1 88
2019-11-27 00:00:00 9.5 17 Oeste 47 Oeste 0 882 0.6 86
2019-11-26 23:00:00 10 17 Oeste 32 Oeste 0 881.6 0.6 73
2019-11-26 22:00:00 10.5 7 Sudoeste 44 Sudoeste 0 881.3 0.5 59
2019-11-26 21:00:00 11.2 19 Oeste 34 Oeste 0 881.4 0.3 60
2019-11-26 20:00:00 11.9 7 Sudoeste 24 Sur 0 881 -0.8 76
2019-11-26 19:00:00 11.7 13 Sur 34 Sur 0 880.8 -0.8 78
2019-11-26 18:00:00 11.5 15 Sur 32 Sur 0 881.1 -1.2 79
2019-11-26 17:00:00 12 16 Sur 46 Sur 0 881.8 -1.1 77
2019-11-26 16:00:00 12.5 25 Sur 51 Sur 0 881.6 -2.2 75
2019-11-26 15:00:00 13.4 19 Sur 44 Sur 0 882.3 -2.4 68
2019-11-26 14:00:00 15.6 16 Sur 42 Sur 0 882.9 -2.5 60
2019-11-26 13:00:00 13.9 24 Sur 44 Sur 0 883.8 -1.4 66
2019-11-26 12:00:00 14.8 12 Sur 27 Sur 0 884.7 -0.6 62
2019-11-26 11:00:00 13.2 9 Sudoeste 21 Sudeste 0 885.4 0.3 69
2019-11-26 10:00:00 11.4 10 Sur 18 Sudeste 0 885.2 -0.1 77
2019-11-26 09:00:00 9.5 12 Sudeste 23 Sudeste 0 885.3 -0.4 80
2019-11-26 08:00:00 9.4 12 Sudeste 21 Sudeste 0 885.1 -0.9 80
2019-11-26 07:00:00 9 10 Sudeste 15 Sudeste 0 885.3 -1.7 80
2019-11-26 06:00:00 8.9 7 Sur 19 Sudoeste 0 885.7 -1.5 79
2019-11-26 05:00:00 7.7 7 Sur 13 Sudeste 0 886 -1.1 77
2019-11-26 04:00:00 5.5 3 Sur 9 Sudoeste 0 887 -1 96
2019-11-26 03:00:00 5.3 9 Sudoeste 14 Sudoeste 0 887.2 -1.1 95
2019-11-26 02:00:00 6 8 Sur 12 Sudeste 0 887.1 -1.2 94
2019-11-26 01:00:00 6.1 0 Calma 11 Este 0 888 -0.3 94
2019-11-26 00:00:00 6.7 5 Este 10 Este 0 888.3 -0.3 94
2019-11-25 23:00:00 7.7 7 Sudeste 10 Sudeste 0 888.3 -0.1 91
2019-11-25 22:00:00 8.7 5 Norte 14 Norte 0 888.3 0.4 87
2019-11-25 21:00:00 9.4 10 Noroeste 17 Norte 0 888.6 0.7 86
2019-11-25 20:00:00 9.3 9 Noroeste 17 Norte 0 888.4 1.4 86
2019-11-25 19:00:00 10.1 5 Noroeste 13 Oeste 0 887.9 0.7 80
2019-11-25 18:00:00 10.7 9 Noroeste 25 Oeste 0 887.9 1.1 76
2019-11-25 17:00:00 11.5 11 Noroeste 27 Noroeste 0 887 0 70
2019-11-25 16:00:00 11.9 19 Noroeste 30 Noroeste 0 887.2 0.1 67
2019-11-25 15:00:00 12.8 19 Oeste 33 Oeste 0 886.8 -0.7 60
2019-11-25 14:00:00 13.3 17 Oeste 37 Oeste 0 887 -0.2 59
2019-11-25 13:00:00 12.3 19 Noroeste 40 Oeste 0 887.1 0.2 62
2019-11-25 12:00:00 12.1 16 Oeste 38 Oeste 0 887.5 0.5 63
2019-11-25 11:00:00 11.4 17 Oeste 31 Oeste 0 887.2 0.9 67
2019-11-25 10:00:00 9.9 14 Oeste 24 Oeste 0 886.9 1.1 76
2019-11-25 09:00:00 8.3 6 Oeste 13 Oeste 0 887 1.1 81
2019-11-25 08:00:00 8.2 6 Oeste 19 Oeste 0 886.3 0.6 83
2019-11-25 07:00:00 9.3 15 Oeste 35 Oeste 0 885.8 0.5 78
2019-11-25 06:00:00 9.4 18 Noroeste 36 Noroeste 0 885.9 0.9 79
2019-11-25 05:00:00 10.2 15 Oeste 31 Oeste 0 885.7 1 84
2019-11-25 04:00:00 10 7 Noroeste 27 Oeste 0 885.3 0.5 88
2019-11-25 03:00:00 10.1 13 Oeste 32 Sudoeste 0 885 -0.2 84
2019-11-25 02:00:00 8.9 8 Sudoeste 18 Sudoeste 0 884.7 -0.6 87
2019-11-25 01:00:00 8 9 Sudeste 19 Sur 0 884.8 -0.7 82
2019-11-25 00:00:00 8.5 10 Sudoeste 26 Sudoeste 0 885.2 -0.4 82
2019-11-24 23:00:00 8.3 9 Sur 27 Sudoeste 0 885.3 -0.5 79
2019-11-24 22:00:00 7.1 6 Sudoeste 17 Sur 0 885.5 -0.6 82
2019-11-24 21:00:00 7.3 8 Sur 32 Oeste 0 885.6 -0.1 81
2019-11-24 20:00:00 8.2 13 Oeste 24 Oeste 0 885.8 -0.1 79
2019-11-24 19:00:00 7.8 6 Sudoeste 14 Sudoeste 0 886.1 0.2 76
2019-11-24 18:00:00 8.2 8 Sudoeste 15 Sudoeste 0 885.7 -0.2 73
2019-11-24 17:00:00 8.5 5 Noroeste 13 Oeste 0 885.9 -0.4 65
2019-11-24 16:00:00 8.9 6 Oeste 15 Noroeste 0 885.9 -1.2 63
2019-11-24 15:00:00 8 8 Noroeste 26 Noroeste 0 885.9 -1.8 65
2019-11-24 14:00:00 8 15 Noroeste 24 Noroeste 0 886.3 -1.3 67
2019-11-24 13:00:00 7.5 16 Noroeste 27 Noroeste 0 887.1 0.2 64
2019-11-24 12:00:00 6.8 14 Noroeste 25 Oeste 0 887.7 1.4 60
2019-11-24 11:00:00 5 15 Oeste 24 Noroeste 0 887.6 1.6 73
2019-11-24 10:00:00 3.2 3 Oeste 12 Noroeste 0 886.9 1.1 85
2019-11-24 09:00:00 2.3 5 Oeste 16 Noroeste 0 886.3 1 90
2019-11-24 08:00:00 2.3 8 Oeste 26 Noroeste 0 886 1 88
2019-11-24 07:00:00 2.4 13 Noroeste 30 Noroeste 0 885.8 1 86
2019-11-24 06:00:00 2.6 15 Oeste 29 Oeste 0 885.3 0.7 85
2019-11-24 05:00:00 2.9 16 Oeste 29 Oeste 0 885 0.5 86
2019-11-24 04:00:00 3.5 19 Oeste 37 Oeste 0 884.8 0.4 83
2019-11-24 03:00:00 3.8 22 Oeste 38 Oeste 0 884.6 0.4 83
2019-11-24 02:00:00 3.8 18 Oeste 30 Oeste 0 884.5 0.5 87
2019-11-24 01:00:00 4 17 Oeste 31 Oeste 0 884.4 0.6 87
2019-11-24 00:00:00 4 15 Oeste 30 Oeste 0 884.2 1.2 87
2019-11-23 23:00:00 4 14 Oeste 25 Noroeste 0 884 1.6 86
2019-11-23 22:00:00 4 11 Oeste 20 Oeste 0 883.8 1.8 84
2019-11-23 21:00:00 3.8 11 Oeste 24 Oeste 0 883 1.8 82
2019-11-23 20:00:00 4.4 11 Oeste 24 Oeste 0 882.4 2.1 78
2019-11-23 19:00:00 4.9 8 Oeste 20 Oeste 0 882 2.7 75
2019-11-23 18:00:00 5.5 15 Oeste 41 Noroeste 0 881.2 2.5 71
2019-11-23 17:00:00 6.6 19 Noroeste 46 Noroeste 0 880.3 2 68
2019-11-23 16:00:00 7.4 27 Noroeste 49 Noroeste 0 879.3 1.1 64
2019-11-23 15:00:00 7.6 31 Noroeste 48 Oeste 0 878.7 1 62
2019-11-23 14:00:00 7.2 30 Noroeste 46 Oeste 0 878.3 1.6 66
2019-11-23 13:00:00 6.1 22 Oeste 46 Oeste 0 878.2 2.9 70
2019-11-23 12:00:00 5.1 22 Oeste 49 Oeste 0 877.7 3.8 74
2019-11-23 11:00:00 4.3 21 Oeste 50 Oeste 0 876.7 4.1 77
2019-11-23 10:00:00 3.7 26 Oeste 55 Oeste 0 875.3 4.2 80
2019-11-23 09:00:00 2.6 29 Oeste 52 Oeste 0 873.9 3.4 83
2019-11-23 08:00:00 2.7 27 Oeste 54 Oeste 0 872.6 2.6 84
2019-11-23 07:00:00 2.9 33 Oeste 51 Oeste 0 871.1 2.5 82
2019-11-23 06:00:00 3.3 26 Oeste 46 Oeste 0 870.5 2.3 83
2019-11-23 05:00:00 3.5 25 Oeste 56 Oeste 0 870 1.8 82
2019-11-23 04:00:00 3.8 31 Oeste 64 Noroeste 0 868.6 0.6 84
2019-11-23 03:00:00 3.9 25 Oeste 48 Oeste 0.2 868.2 0.9 82
2019-11-23 02:00:00 4.3 23 Oeste 56 Oeste 0 868.2 0.7 82
2019-11-23 01:00:00 4.4 21 Oeste 44 Oeste 0.4 868 1.1 86
2019-11-23 00:00:00 5.5 18 Oeste 43 Oeste 0.2 867.3 0.5 82
2019-11-22 23:00:00 5.9 15 Oeste 36 Oeste 0.2 867.5 0.9 85
2019-11-22 22:00:00 6.8 18 Oeste 34 Oeste 0 866.9 0.4 79
2019-11-22 21:00:00 6.3 8 Sudoeste 22 Sudoeste 0 866.8 1.2 85
2019-11-22 20:00:00 7.2 12 Oeste 36 Oeste 0.2 866.6 1.4 81
2019-11-22 19:00:00 8.8 24 Oeste 46 Sudoeste 0 866.5 1.8 70
2019-11-22 18:00:00 10 17 Oeste 45 Sudoeste 0 865.6 0.4 64
2019-11-22 17:00:00 11.9 19 Sudoeste 39 Oeste 0 865.2 -1.2 60
2019-11-22 16:00:00 13.2 10 Sudoeste 27 Sudoeste 0 864.7 -2.7 61
2019-11-22 15:00:00 12.4 18 Sur 41 Sur 0 865.2 -3.5 66
2019-11-22 14:00:00 8.3 14 Sudeste 28 Sur 0 866.4 -2.3 89
2019-11-22 13:00:00 8.4 11 Sur 37 Sur 0.8 867.4 -2.5 87
2019-11-22 12:00:00 7.9 23 Sur 41 Sur 0 868.7 -2.4 86
2019-11-22 11:00:00 8.1 16 Sur 51 Sudeste 0 868.7 -3.6 82
2019-11-22 10:00:00 7.6 21 Sur 53 Sudeste 0 869.9 -3.2 81
2019-11-22 09:00:00 6.5 19 Sur 44 Sur 0.2 871.1 -2.6 84
2019-11-22 08:00:00 6.3 15 Sur 35 Sur 0 872.3 -2.5 81
2019-11-22 07:00:00 6.5 15 Sur 34 Sudoeste 0 873.1 -2.4 81
2019-11-22 06:00:00 6.3 18 Sur 38 Sur 0 873.7 -2.6 84
2019-11-22 05:00:00 5.1 14 Sudeste 29 Sudeste 0 874.8 -2.3 93
2019-11-22 04:00:00 5 15 Sudeste 26 Sudeste 0 875.5 -2.1 93
2019-11-22 03:00:00 4.5 12 Sudeste 25 Sudeste 0 876.3 -1.7 95
2019-11-22 02:00:00 3.9 12 Sudeste 27 Sudeste 0 877.1 -1.7 96
2019-11-22 01:00:00 4 15 Sudeste 27 Sudeste 0 877.6 -1.4 93
2019-11-22 00:00:00 4.3 7 Sudeste 17 Sur 0 878 -1.1 87
2019-11-21 23:00:00 3.5 6 Sudeste 19 Sudeste 0 878.8 -0.2 93
2019-11-21 22:00:00 3.1 13 Sudeste 21 Sur 0 879 -0.1 92
2019-11-21 21:00:00 3.4 12 Sudeste 19 Sudeste 0 879.1 0.3 91
2019-11-21 20:00:00 3.6 8 Sudeste 15 Sudeste 0 879 0.4 88
2019-11-21 19:00:00 4.4 4 Este 8 Norte 0 879.1 0.4 88
2019-11-21 18:00:00 5.9 7 Norte 19 Oeste 0 878.8 0.3 82
2019-11-21 17:00:00 7.5 14 Sudoeste 23 Oeste 0 878.6 -0.1 69
2019-11-21 16:00:00 7.5 13 Noroeste 26 Oeste 0 878.7 -0.4 70
2019-11-21 15:00:00 8.6 15 Oeste 26 Sudoeste 0 878.5 -1.3 62
2019-11-21 14:00:00 8.4 14 Oeste 26 Sudoeste 0 878.7 -0.9 70
2019-11-21 13:00:00 6.8 13 Noroeste 24 Noroeste 0.2 879.1 -0.3 81
2019-11-21 12:00:00 7.9 7 Sudoeste 17 Oeste 0 879.8 0.5 75
2019-11-21 11:00:00 5.5 5 Sudeste 8 Sudeste 0 879.6 0.9 83
2019-11-21 10:00:00 3.9 4 Sudeste 13 Sudeste 0 879.4 0.9 86
2019-11-21 09:00:00 2.8 7 Sudeste 15 Sudeste 0 879.3 0.7 89
2019-11-21 08:00:00 2.7 11 Sudeste 18 Sudeste 0 878.7 0 88
2019-11-21 07:00:00 2.5 8 Sudeste 14 Sudeste 0 878.5 -0.4 89
2019-11-21 06:00:00 2.3 5 Sudeste 12 Sudeste 0 878.6 -0.4 90
2019-11-21 05:00:00 2.1 8 Sudeste 17 Sudeste 0 878.7 -0.5 91
2019-11-21 04:00:00 1.8 10 Sudeste 18 Sudeste 0 878.9 -0.5 90
2019-11-21 03:00:00 1.6 11 Sudeste 17 Sudeste 0 879 -0.6 90
2019-11-21 02:00:00 1.1 12 Sudeste 21 Sudeste 0 879.2 -0.2 94
2019-11-21 01:00:00 1.6 9 Sur 16 Sudeste 0 879.4 -0.1 92
2019-11-21 00:00:00 1.6 9 Sudeste 19 Sudeste 0 879.6 0.3 93
2019-11-20 23:00:00 2.3 11 Sudeste 21 Sur 0 879.4 0.2 92
2019-11-20 22:00:00 2.6 11 Sudeste 21 Sudeste 0 879.5 0.5 93
2019-11-20 21:00:00 2.6 13 Sudeste 23 Sudeste 0 879.3 0.2 93
2019-11-20 20:00:00 2.7 11 Sudeste 18 Sudeste 0 879.2 0.1 92
2019-11-20 19:00:00 3 10 Sudeste 21 Sudeste 0.4 879 -0.1 92
2019-11-20 18:00:00 3.2 14 Sudeste 24 Sudeste 0 879.1 -0.1 91
2019-11-20 17:00:00 3.3 13 Sudeste 25 Sudeste 0 879.1 -0.5 91
2019-11-20 16:00:00 3.5 11 Sudeste 24 Sudeste 0.6 879.1 -1.2 91
2019-11-20 15:00:00 4.3 10 Sur 30 Sudeste 0.2 879.2 -1.7 86
2019-11-20 14:00:00 4.4 12 Sur 28 Sur 0 879.6 -1.5 84
2019-11-20 13:00:00 4.3 11 Sur 27 Sur 0.2 880.3 -1.1 84
2019-11-20 12:00:00 4 18 Sudeste 35 Sudeste 0 880.9 -0.4 81
2019-11-20 11:00:00 3.9 12 Sudeste 28 Sur 0 881.1 -0.4 79
2019-11-20 10:00:00 3.3 14 Sudeste 28 Sudeste 0 881.4 -0.2 84
2019-11-20 09:00:00 2.5 15 Sudeste 27 Sudeste 0 881.3 -0.5 87
2019-11-20 08:00:00 2.7 12 Sudeste 22 Sudeste 0 881.5 -0.6 85
2019-11-20 07:00:00 2.9 12 Sudeste 19 Sur 0 881.6 -1.1 82
2019-11-20 06:00:00 3.1 8 Sur 16 Sur 0 881.8 -1.3 80
2019-11-20 05:00:00 3.3 10 Sudeste 15 Sur 0 882.1 -1.5 79
2019-11-20 04:00:00 3.3 7 Sudeste 12 Sudeste 0 882.7 -1.5 79
2019-11-20 03:00:00 3.3 6 Sudeste 13 Sudeste 0 883.1 -1.5 78
2019-11-20 02:00:00 3.3 8 Sur 12 Sur 0 883.6 -1.7 77
2019-11-20 01:00:00 3.9 4 Sudoeste 9 Sudeste 0 884.2 -1.2 75
2019-11-20 00:00:00 4 4 Sur 9 Sur 0 884.6 -1 75
2019-11-19 23:00:00 3.5 2 Sudoeste 7 Sudeste 0 885.3 -0.4 77
2019-11-19 22:00:00 3.3 5 Sudeste 12 Sudeste 0 885.4 -0.2 77
2019-11-19 21:00:00 3.2 5 Sudeste 10 Sudeste 0 885.6 0 77
2019-11-19 20:00:00 3.6 4 Sudeste 8 Sudeste 0 885.7 0 75
2019-11-19 19:00:00 4.6 5 Este 10 Nordeste 0 885.6 -0.4 68
2019-11-19 18:00:00 5.2 6 Norte 15 Norte 0 885.6 -0.5 67
2019-11-19 17:00:00 6.1 11 Norte 15 Noroeste 0 885.7 -1 64
2019-11-19 16:00:00 7 12 Noroeste 18 Noroeste 0 886 -1.4 58
2019-11-19 15:00:00 7.6 9 Norte 15 Norte 0 886.1 -2 58
2019-11-19 14:00:00 8 5 Oeste 14 Oeste 0 886.7 -1.7 56
2019-11-19 13:00:00 7.9 4 Sudoeste 9 Sudoeste 0 887.4 -1.2 60
2019-11-19 12:00:00 5.8 5 Sur 9 Sudoeste 0 888.1 -0.3 70
2019-11-19 11:00:00 3.4 4 Sur 6 Sur 0 888.4 0.2 76
2019-11-19 10:00:00 1.6 3 Sur 5 Sur 0 888.6 0.6 83
2019-11-19 09:00:00 0 3 Sudeste 6 Sudoeste 0 888.4 0.2 91
2019-11-19 08:00:00 -0.7 0 Calma 9 Sudoeste 0 888.2 0.2 93
2019-11-19 07:00:00 -0.8 2 Nordeste 8 Sur 0 888 -0.2 92
2019-11-19 06:00:00 -0.9 3 Sudeste 8 Sur 0 888.2 -0.3 92
2019-11-19 05:00:00 -0.8 0 Calma 6 Sudeste 0 888 -0.5 92
2019-11-19 04:00:00 -0.5 4 Sur 7 Sudeste 0 888.2 -0.6 91
2019-11-19 03:00:00 -0.5 3 Sur 9 Sur 0 888.5 -0.6 92
2019-11-19 02:00:00 -0.4 0 Calma 9 Sur 0 888.5 -0.7 91
2019-11-19 01:00:00 0.3 3 Sur 8 Sur 0 888.8 -0.3 87
2019-11-19 00:00:00 1.5 5 Sudoeste 12 Sudoeste 0 889.1 0.5 84
2019-11-18 23:00:00 0.8 6 Sur 9 Sur 0 889.2 0.7 90
2019-11-18 22:00:00 2.3 4 Oeste 6 Sudoeste 0 889.1 0.7 84
2019-11-18 21:00:00 3.4 5 Oeste 11 Oeste 0 888.6 0.3 83
2019-11-18 20:00:00 3.8 5 Oeste 10 Oeste 0 888.5 0.4 83
2019-11-18 19:00:00 4.1 8 Noroeste 12 Noroeste 0 888.4 0.9 83
2019-11-18 18:00:00 4.2 10 Noroeste 14 Noroeste 0 888.3 1 80
2019-11-18 17:00:00 4.5 10 Norte 21 Norte 0 888.1 0.9 78
2019-11-18 16:00:00 4.9 14 Noroeste 24 Noroeste 0 887.5 0.2 76
2019-11-18 15:00:00 4.7 15 Noroeste 28 Noroeste 0 887.3 -0.1 74
2019-11-18 14:00:00 4.2 13 Norte 21 Norte 0 887.2 -0.1 79
2019-11-18 13:00:00 4 15 Noroeste 24 Noroeste 0 887.3 0.7 82
2019-11-18 12:00:00 3.5 9 Noroeste 20 Noroeste 0 887.4 1.3 85
2019-11-18 11:00:00 2.6 13 Noroeste 19 Noroeste 0 887.3 1.9 90
2019-11-18 10:00:00 2.2 14 Noroeste 21 Noroeste 0 886.6 1.7 91
2019-11-18 09:00:00 1.7 8 Norte 17 Norte 0 886.1 1.8 93
2019-11-18 08:00:00 1.4 12 Noroeste 20 Noroeste 0 885.4 1.5 94
2019-11-18 07:00:00 1.5 11 Norte 23 Norte 0 884.9 1.5 93
2019-11-18 06:00:00 1.4 14 Noroeste 29 Noroeste 0 884.3 1.2 94
2019-11-18 05:00:00 1.8 15 Norte 37 Noroeste 0 883.9 1.1 93
2019-11-18 04:00:00 2.2 20 Noroeste 34 Noroeste 0 883.4 0.3 93
2019-11-18 03:00:00 2.2 21 Noroeste 35 Noroeste 0 883.1 0.4 93
2019-11-18 02:00:00 2.3 15 Noroeste 27 Noroeste 0 882.8 0.1 92
2019-11-18 01:00:00 2 9 Noroeste 23 Oeste 0 883.1 0.6 93
2019-11-18 00:00:00 2.5 16 Oeste 25 Noroeste 0 882.7 0 91
2019-11-17 23:00:00 2.7 6 Oeste 24 Noroeste 0 882.7 0 92
2019-11-17 22:00:00 3.2 16 Noroeste 31 Noroeste 0 882.5 0.4 89
2019-11-17 21:00:00 4.1 12 Oeste 34 Noroeste 0 882.7 0.8 90
2019-11-17 20:00:00 5.2 18 Oeste 39 Noroeste 0.4 882.7 0.5 88
2019-11-17 19:00:00 5.4 29 Noroeste 46 Noroeste 2 882.1 -0.3 87
2019-11-17 18:00:00 6.6 22 Noroeste 34 Oeste 1.2 881.9 -1.1 92
2019-11-17 17:00:00 6.9 19 Noroeste 38 Noroeste 0.4 882.2 -1.3 89
2019-11-17 16:00:00 8.7 19 Oeste 41 Oeste 0 882.4 -1.5 80
2019-11-17 15:00:00 8.8 17 Oeste 42 Oeste 0 883 -1.6 80
2019-11-17 14:00:00 8.8 22 Oeste 40 Oeste 0 883.5 -1.4 80
2019-11-17 13:00:00 8.2 15 Oeste 26 Sudoeste 0 883.9 -1.2 86
2019-11-17 12:00:00 7.3 13 Sudoeste 22 Sudoeste 0 884.6 -0.4 87
2019-11-17 11:00:00 7 9 Oeste 24 Sudoeste 0 884.9 0.1 87
2019-11-17 10:00:00 6.2 11 Oeste 21 Oeste 0 885.1 0 89
2019-11-17 09:00:00 3.9 3 Sur 13 Oeste 0 885 -0.6 89
2019-11-17 08:00:00 2.5 5 Sudeste 12 Sudeste 0 884.8 -1 89
2019-11-17 07:00:00 1.8 5 Sudeste 10 Sudeste 0 885.1 -1 90
2019-11-17 06:00:00 1.9 6 Sudoeste 14 Sudoeste 0 885.6 -0.7 86
2019-11-17 05:00:00 1.3 7 Sudeste 12 Noroeste 0 885.8 -0.8 85
2019-11-17 04:00:00 1.2 2 Este 10 Sur 0 886.1 -0.8 84
2019-11-17 03:00:00 0.6 4 Sur 13 Sudeste 0 886.3 -0.8 84
2019-11-17 02:00:00 0.8 2 Oeste 13 Sudoeste 0 886.6 -0.8 81
2019-11-17 01:00:00 1.2 4 Sudoeste 13 Sudoeste 0 886.9 -0.5 80
2019-11-17 00:00:00 1 5 Sur 11 Oeste 0 887.1 -0.1 83
2019-11-16 23:00:00 1.5 6 Oeste 12 Oeste 0 887.4 0.1 81
2019-11-16 22:00:00 0.8 4 Oeste 13 Oeste 0 887.4 0.5 80
2019-11-16 21:00:00 1.2 11 Noroeste 21 Oeste 0 887.2 0.5 80
2019-11-16 20:00:00 1.7 8 Oeste 23 Oeste 0 887.3 1 79
2019-11-16 19:00:00 2.2 14 Noroeste 29 Noroeste 0 886.9 0.7 77
2019-11-16 18:00:00 3.8 14 Noroeste 24 Oeste 0 886.7 0.6 77
2019-11-16 17:00:00 5.4 16 Noroeste 27 Noroeste 0 886.3 0.5 59
2019-11-16 16:00:00 5.8 14 Oeste 26 Noroeste 0 886.2 0.3 56
2019-11-16 15:00:00 5.5 17 Noroeste 31 Noroeste 0 886.1 -0.3 55
2019-11-16 14:00:00 6 17 Noroeste 26 Noroeste 0 885.8 -0.3 53
2019-11-16 13:00:00 5.2 12 Oeste 21 Noroeste 0 885.9 0.2 61
2019-11-16 12:00:00 4 13 Noroeste 21 Noroeste 0 886.4 1.5 67
2019-11-16 11:00:00 2.7 12 Noroeste 25 Noroeste 0 886.1 1.9 74
2019-11-16 10:00:00 0.8 6 Noroeste 12 Oeste 0 885.7 1.9 82
2019-11-16 09:00:00 -0.3 4 Oeste 13 Noroeste 0 884.9 1.9 88
2019-11-16 08:00:00 -0.2 9 Noroeste 18 Noroeste 0 884.2 1.6 89
2019-11-16 07:00:00 -0.1 12 Noroeste 28 Noroeste 0 883.8 1.7 89
2019-11-16 06:00:00 0 17 Noroeste 27 Noroeste 0 883 1.5 90
2019-11-16 05:00:00 0.1 16 Noroeste 27 Noroeste 0 882.6 1.3 90
2019-11-16 04:00:00 0.1 15 Noroeste 21 Noroeste 0 882.1 1.1 91
2019-11-16 03:00:00 0.2 13 Noroeste 26 Noroeste 0 881.5 1 90
2019-11-16 02:00:00 0.6 17 Noroeste 32 Noroeste 0 881.3 1.3 89
2019-11-16 01:00:00 0.7 13 Noroeste 23 Noroeste 0 881 1.3 91
2019-11-16 00:00:00 0.7 9 Oeste 19 Noroeste 0 880.5 1.6 90
2019-11-15 23:00:00 0.8 6 Noroeste 22 Noroeste 0 880 1.5 91
2019-11-15 22:00:00 1.1 19 Noroeste 37 Noroeste 0 879.7 1.6 88
2019-11-15 21:00:00 1.8 17 Noroeste 30 Noroeste 0 878.9 1.3 81
2019-11-15 20:00:00 2.2 14 Oeste 30 Oeste 0 878.5 1.1 80
2019-11-15 19:00:00 2.5 16 Noroeste 26 Noroeste 0 878.1 1 77
2019-11-15 18:00:00 2.8 15 Noroeste 32 Noroeste 0 877.6 0.5 76
2019-11-15 17:00:00 3.7 19 Noroeste 33 Noroeste 0 877.4 0.1 72
2019-11-15 16:00:00 4.2 19 Noroeste 41 Noroeste 0 877.1 -0.6 68
2019-11-15 15:00:00 4 26 Noroeste 45 Noroeste 0 877.1 -1 72
2019-11-15 14:00:00 4.1 26 Noroeste 41 Noroeste 0 877.3 -0.5 71
2019-11-15 13:00:00 3.7 22 Noroeste 41 Noroeste 0 877.7 -0.1 77
2019-11-15 12:00:00 2.4 19 Noroeste 35 Noroeste 0 878.1 0.7 83
2019-11-15 11:00:00 1.5 13 Oeste 28 Oeste 0 877.8 1.1 88
2019-11-15 10:00:00 0.1 14 Noroeste 28 Noroeste 0.2 877.8 1.5 95
2019-11-15 09:00:00 0.1 13 Noroeste 27 Oeste 0 877.4 1.5 92
2019-11-15 08:00:00 0.1 14 Noroeste 35 Noroeste 0 876.7 1.1 93
2019-11-15 07:00:00 0.1 19 Oeste 32 Noroeste 0 876.3 0.7 92
2019-11-15 06:00:00 0.1 16 Noroeste 39 Noroeste 0 875.9 -0.2 94
2019-11-15 05:00:00 0.1 20 Noroeste 36 Noroeste 0 875.6 -0.4 94
2019-11-15 04:00:00 0.1 22 Noroeste 38 Noroeste 0 875.6 -0.2 95
2019-11-15 03:00:00 0.4 14 Noroeste 28 Oeste 0.2 876.1 0.7 95
2019-11-15 02:00:00 0.4 14 Oeste 31 Noroeste 0.6 876 0.9 96
2019-11-15 01:00:00 0.7 19 Noroeste 37 Oeste 0.2 875.8 0.9 94
2019-11-15 00:00:00 0.9 22 Noroeste 47 Noroeste 0.2 875.4 1 94
2019-11-14 23:00:00 1.8 26 Noroeste 48 Oeste 0 875.1 1 89
2019-11-14 22:00:00 2.3 27 Noroeste 56 Oeste 0 874.9 1.5 85
2019-11-14 21:00:00 2.7 31 Noroeste 51 Noroeste 0 874.4 1.9 84
2019-11-14 20:00:00 2.8 35 Noroeste 73 Noroeste 0 874.1 1.8 84
2019-11-14 19:00:00 2.9 35 Oeste 74 Oeste 0 873.4 0.9 84
2019-11-14 18:00:00 3.2 41 Noroeste 71 Noroeste 0.2 872.5 -0.7 81
2019-11-14 17:00:00 3.2 31 Oeste 62 Oeste 0 872.3 -1.9 83
2019-11-14 16:00:00 2.6 17 Oeste 43 Oeste 0.6 872.5 -2.7 91
2019-11-14 15:00:00 4.4 17 Oeste 49 Oeste 0 873.2 -3.1 70
2019-11-14 14:00:00 4.8 30 Oeste 57 Oeste 0 874.2 -2.4 66
2019-11-14 13:00:00 4.3 19 Oeste 33 Oeste 0 875.2 -1.5 73
2019-11-14 12:00:00 2.5 19 Oeste 40 Sudoeste 0 876.3 -0.8 81
2019-11-14 11:00:00 2.3 19 Oeste 46 Noroeste 0 876.6 -1.1 84
2019-11-14 10:00:00 1.2 22 Noroeste 35 Oeste 0.4 876.7 -0.6 88
2019-11-14 09:00:00 0.8 20 Oeste 39 Noroeste 1 877.1 0.2 93
2019-11-14 08:00:00 0.3 22 Noroeste 51 Noroeste 1.6 877.7 0.6 97
2019-11-14 07:00:00 0.8 24 Noroeste 43 Noroeste 1.8 877.3 -1.1 94
2019-11-14 06:00:00 5 21 Oeste 43 Oeste 0.4 876.9 -3.3 87
2019-11-14 05:00:00 5.5 12 Sudoeste 31 Sudoeste 0 877.1 -3.8 80
2019-11-14 04:00:00 5.3 13 Sudoeste 28 Oeste 0 878.4 -3.8 78
2019-11-14 03:00:00 5.3 16 Sudoeste 34 Oeste 0 880.2 -2.3 77
2019-11-14 02:00:00 5.2 18 Sudoeste 35 Oeste 0 880.9 -2 77
2019-11-14 01:00:00 5.6 21 Oeste 39 Oeste 0 882.2 -1 79
2019-11-14 00:00:00 6.9 17 Oeste 32 Oeste 0 882.5 -1.6 79
2019-11-13 23:00:00 7.6 13 Noroeste 30 Oeste 0 882.9 -1.5 82
2019-11-13 22:00:00 8.3 13 Oeste 27 Oeste 0 883.2 -1.6 81
2019-11-13 21:00:00 8.4 9 Sudoeste 26 Sudoeste 0 884.1 -1.1 82
2019-11-13 20:00:00 9 10 Oeste 24 Oeste 0 884.4 -0.4 77
2019-11-13 19:00:00 9.6 11 Oeste 22 Oeste 0 884.8 -0.1 73
2019-11-13 18:00:00 10.5 13 Oeste 22 Noroeste 0 885.2 0.4 76
2019-11-13 17:00:00 11.4 14 Noroeste 28 Noroeste 0 884.8 0.2 71
2019-11-13 16:00:00 11.9 14 Noroeste 26 Noroeste 0 884.9 -0.1 68
2019-11-13 15:00:00 11.5 17 Noroeste 25 Noroeste 0 884.8 -0.6 68
2019-11-13 14:00:00 10.6 16 Noroeste 23 Noroeste 0 884.6 -0.2 70
2019-11-13 13:00:00 9.6 13 Norte 22 Noroeste 0 885 1.1 76
2019-11-13 12:00:00 9.1 14 Norte 28 Norte 0 885.4 3.2 82
2019-11-13 11:00:00 8.3 18 Norte 40 Noroeste 0 884.8 3.7 93
2019-11-13 10:00:00 8.4 27 Noroeste 51 Noroeste 1.8 883.9 3.7 96
2019-11-13 09:00:00 9.2 26 Noroeste 51 Noroeste 0.4 882.2 2.5 94
2019-11-13 08:00:00 9.6 24 Noroeste 54 Oeste 0.4 881.1 1.4 96
2019-11-13 07:00:00 9.6 33 Oeste 62 Noroeste 1.2 880.2 0.6 93
2019-11-13 06:00:00 9.6 27 Oeste 51 Oeste 0.8 879.7 -0.2 93
2019-11-13 05:00:00 9.5 24 Oeste 49 Oeste 0.2 879.7 -0.6 93
2019-11-13 04:00:00 9.8 24 Oeste 48 Sudoeste 0 879.6 -1.2 90
2019-11-13 03:00:00 9.2 14 Oeste 40 Oeste 0 879.9 -1.8 89
2019-11-13 02:00:00 8.2 15 Sudoeste 40 Oeste 1.8 880.3 -2.4 93
2019-11-13 01:00:00 8.1 19 Sudoeste 36 Sudoeste 0 880.8 -2.6 93
2019-11-13 00:00:00 7.7 18 Sudoeste 30 Sudoeste 0.8 881.7 -2.1 93
2019-11-12 23:00:00 7.5 12 Sudoeste 38 Oeste 0.6 882.7 -1.6 95
2019-11-12 22:00:00 7.7 16 Oeste 36 Oeste 0.6 883.4 -1.4 93
2019-11-12 21:00:00 7.4 18 Oeste 37 Oeste 0.4 883.8 -1.2 93
2019-11-12 20:00:00 6.4 11 Sudoeste 20 Sudoeste 0.6 884.3 -1.1 94
2019-11-12 19:00:00 6.3 10 Sudoeste 26 Sudoeste 0 884.8 -1 90
2019-11-12 18:00:00 7.8 11 Oeste 23 Oeste 0 885 -1.3 75
2019-11-12 17:00:00 8.6 13 Noroeste 26 Oeste 0 885.4 -1.7 62
2019-11-12 16:00:00 9.4 17 Noroeste 30 Noroeste 0 885.8 -1.9 55
2019-11-12 15:00:00 9.6 17 Noroeste 28 Noroeste 0 886.3 -2.1 53
2019-11-12 14:00:00 8.9 13 Noroeste 28 Noroeste 0 887.1 -1.7 54
2019-11-12 13:00:00 7.9 15 Noroeste 28 Noroeste 0 887.7 -1 61
2019-11-12 12:00:00 6.9 11 Noroeste 25 Noroeste 0 888.4 0 67
2019-11-12 11:00:00 5.8 13 Noroeste 21 Noroeste 0 888.8 0.5 70
2019-11-12 10:00:00 4.5 9 Noroeste 19 Noroeste 0 888.7 0.8 77
2019-11-12 09:00:00 1.7 12 Noroeste 22 Noroeste 0 888.4 0.6 98
2019-11-12 08:00:00 1.5 18 Noroeste 27 Norte 0 888.3 -0.1 98
2019-11-12 07:00:00 1.5 7 Norte 11 Norte 0 887.9 -0.2 96
2019-11-12 06:00:00 1.6 6 Noroeste 13 Noroeste 0 887.8 -1.4 97
2019-11-12 05:00:00 1.7 8 Noroeste 12 Noroeste 0 888.4 -0.9 96
2019-11-12 04:00:00 2.5 3 Sudoeste 13 Noroeste 0 888.1 -1.6 95
2019-11-12 03:00:00 2.9 6 Noroeste 10 Noroeste 0 889.2 -0.8 97
2019-11-12 02:00:00 3 4 Noroeste 10 Norte 0 889.3 -0.3 96
2019-11-12 01:00:00 3.1 8 Noroeste 16 Norte 0 889.7 0.2 95
2019-11-12 00:00:00 3.8 7 Norte 11 Noroeste 0 890 0.5 97
2019-11-11 23:00:00 3.7 5 Norte 10 Noroeste 0 889.6 0.4 96
2019-11-11 22:00:00 4.1 5 Noroeste 9 Norte 0 889.5 0.7 95
2019-11-11 21:00:00 5.1 5 Noroeste 16 Nordeste 0 889.5 1.2 91
2019-11-11 20:00:00 6.4 9 Nordeste 22 Norte 0 889.2 1.2 89
2019-11-11 19:00:00 7.3 3 Oeste 19 Noroeste 0 888.8 0.8 87
2019-11-11 18:00:00 8.3 11 Noroeste 30 Noroeste 0 888.3 1.1 81
2019-11-11 17:00:00 9.2 17 Noroeste 32 Noroeste 0 888 0.8 85
2019-11-11 16:00:00 9.8 25 Noroeste 42 Noroeste 0 888 0.4 83
2019-11-11 15:00:00 9.9 21 Noroeste 40 Noroeste 0 887.2 -0.9 86
2019-11-11 14:00:00 10 26 Noroeste 40 Noroeste 0 887.2 -1.1 89
2019-11-11 13:00:00 9.8 22 Noroeste 35 Noroeste 0 887.6 -1 91
2019-11-11 12:00:00 8.4 13 Oeste 22 Oeste 0 888.1 -0.3 94
2019-11-11 11:00:00 7.3 9 Oeste 18 Oeste 0 888.3 0 98
2019-11-11 10:00:00 5.7 6 Oeste 10 Oeste 0 888.6 0.3 98
2019-11-11 09:00:00 4.7 2 Noroeste 15 Oeste 0.2 888.4 -0.1 98
2019-11-11 08:00:00 4.2 5 Oeste 10 Oeste 0 888.3 -0.3 97
2019-11-11 07:00:00 4 3 Sudoeste 10 Oeste 0.2 888.3 -0.8 95
2019-11-11 06:00:00 3.7 5 Oeste 12 Oeste 0 888.5 -0.5 94
2019-11-11 05:00:00 3.2 6 Oeste 12 Sudoeste 0 888.6 -0.7 95
2019-11-11 04:00:00 2.9 5 Noroeste 9 Oeste 0 889.1 -1 96
2019-11-11 03:00:00 2.6 4 Oeste 12 Oeste 0 889 -0.8 96
2019-11-11 02:00:00 2.3 6 Oeste 14 Oeste 0 889.3 -0.5 95
2019-11-11 01:00:00 2.7 8 Noroeste 13 Noroeste 0 890.1 0.8 94
2019-11-11 00:00:00 2.6 5 Noroeste 15 Noroeste 0 889.8 0.3 95